Terminal Aerodrome Forecast
Issued by NWS

Current Version | Previous Version | Text Only | Print | Product List | Glossary On
Versions: 1 2 3 4 5 6 7 8 9 10 11 12 13
390
FTUS45 KTFX 271730
TAFHVR
TAF
KHVR 271730Z 2718/2818 10007KT P6SM VCSH FEW040 SCT070
      TEMPO 2721/2801 VRB12G25KT 3SM -TSRA SCT010 OVC030CB
     FM280100 26008KT 3SM -RA SCT010 BKN030
     FM280900 25010KT P6SM FEW030 SCT060=

USA.gov is the U.S. government's official web portal to all federal, state and local government web resources and services.